Time;durP1;ratioP1;P1;durP2;ratioP2;P2;SDS_P1;SDS_P2;PMS_P1;PMS_P2;Temp;Humidity;BMP_temperature;BMP_pressure;BME280_temperature;BME280_humidity;BME280_pressure;Samples;Min_cycle;Max_cycle;Signal;HPM_P1;HPM_P2
2023/10/15 00:02:06;;;;;;;;;;;;;;;29.06;64.49;100771.75;5037857;28;71281;-40
2023/10/15 00:04:36;;;;;;;;;;;;;;;29.09;67.77;100767.78;5037610;28;66540;-40
2023/10/15 00:07:07;;;;;;;;;;;;;;;29.12;70.90;100781.69;5039107;28;70796;-40
2023/10/15 00:09:39;;;;;;;;;;;;;;;29.12;72.15;100780.88;5037721;28;66938;-40
2023/10/15 00:12:09;;;;;;;;;;;;;;;29.16;73.68;100782.09;5036569;28;69877;-41
2023/10/15 00:14:39;;;;;;;;;;;;;;;29.19;73.30;100776.25;5038002;28;66812;-41
2023/10/15 00:17:09;;;;;;;;;;;;;;;29.22;71.94;100781.25;5037914;28;69800;-40
2023/10/15 00:19:39;;;;;;;;;;;;;;;29.25;69.82;100777.28;5039477;28;66599;-41
2023/10/15 00:22:09;;;;;;;;;;;;;;;29.28;68.40;100784.97;5040195;28;69631;-40
2023/10/15 00:24:40;;;;;;;;;;;;;;;29.30;67.54;100778.31;5040836;28;66414;-40
2023/10/15 00:27:10;;;;;;;;;;;;;;;29.32;66.73;100781.66;5038949;28;70508;-40
2023/10/15 00:29:40;;;;;;;;;;;;;;;29.35;66.20;100788.50;5036776;28;66788;-41
2023/10/15 00:32:10;;;;;;;;;;;;;;;29.37;66.50;100784.53;5040822;28;71109;-41
2023/10/15 00:34:39;;;;;;;;;;;;;;;29.38;65.78;100783.50;5037926;28;67139;-40
2023/10/15 00:37:09;;;;;;;;;;;;;;;29.42;66.20;100792.03;5056001;28;70265;-40
2023/10/15 00:39:41;;;;;;;;;;;;;;;29.44;65.81;100791.78;5039626;28;66250;-39
2023/10/15 00:42:11;;;;;;;;;;;;;;;29.48;72.62;100787.63;5036581;28;70290;-40
2023/10/15 00:44:41;;;;;;;;;;;;;;;29.50;74.78;100793.63;5038879;28;66575;-39
2023/10/15 00:47:15;;;;;;;;;;;;;;;29.52;76.51;100792.38;5037398;28;70057;-39
2023/10/15 00:49:45;;;;;;;;;;;;;;;29.49;77.42;100803.63;5036210;28;66684;-39
2023/10/15 00:52:15;;;;;;;;;;;;;;;29.50;77.59;100799.88;5027002;28;69983;-40
2023/10/15 00:54:46;;;;;;;;;;;;;;;29.50;78.10;100804.44;5036889;28;67448;-40
2023/10/15 00:57:35;;;;;;;;;;;;;;;29.46;78.41;100808.63;5037382;28;70739;-40
2023/10/15 01:00:08;;;;;;;;;;;;;;;29.47;78.73;100816.50;5046509;28;66454;-40
2023/10/15 01:02:44;;;;;;;;;;;;;;;29.48;79.44;100811.97;5040947;28;70704;-40
2023/10/15 01:05:14;;;;;;;;;;;;;;;29.47;79.11;100816.50;5057543;28;66809;-40
2023/10/15 01:07:47;;;;;;;;;;;;;;;29.49;79.27;100821.72;5054717;28;69211;-39
2023/10/15 01:10:29;;;;;;;;;;;;;;;29.54;79.41;100824.63;5040187;28;66569;-39
2023/10/15 01:13:05;;;;;;;;;;;;;;;29.57;79.76;100832.28;5040734;28;70992;-40
2023/10/15 01:15:41;;;;;;;;;;;;;;;29.62;79.22;100835.19;5039631;28;65785;-40
2023/10/15 01:18:12;;;;;;;;;;;;;;;29.67;79.99;100845.38;5040695;28;70248;-39
2023/10/15 01:20:43;;;;;;;;;;;;;;;29.69;79.65;100857.66;5038960;28;65829;-40
2023/10/15 01:23:28;;;;;;;;;;;;;;;29.71;79.89;100854.75;5040784;28;69609;-40
2023/10/15 01:26:09;;;;;;;;;;;;;;;29.74;79.56;100865.13;5046539;28;66470;-39
2023/10/15 01:28:40;;;;;;;;;;;;;;;29.77;80.11;100860.13;5039775;28;69742;-38
2023/10/15 01:31:15;;;;;;;;;;;;;;;29.81;79.62;100861.38;5042629;28;67413;-41
2023/10/15 01:33:49;;;;;;;;;;;;;;;29.83;79.76;100859.25;5041212;28;71076;-43
2023/10/15 01:36:22;;;;;;;;;;;;;;;29.84;79.47;100866.34;5042443;28;66122;-47
2023/10/15 01:38:55;;;;;;;;;;;;;;;29.89;79.76;100862.16;5039236;28;70864;-41
2023/10/15 01:41:26;;;;;;;;;;;;;;;29.92;79.87;100875.25;5056226;28;67613;-41
2023/10/15 01:43:59;;;;;;;;;;;;;;;29.93;79.79;100885.03;5031570;28;70587;-42
2023/10/15 01:47:07;;;;;;;;;;;;;;;29.95;80.27;100880.22;5036862;28;66186;-41
2023/10/15 01:49:37;;;;;;;;;;;;;;;29.96;80.36;100885.44;5038581;28;69913;-40
2023/10/15 01:52:11;;;;;;;;;;;;;;;29.98;80.08;100898.75;5039355;28;64900;-40
2023/10/15 01:54:45;;;;;;;;;;;;;;;29.99;79.69;100903.09;5053977;28;70455;-39
2023/10/15 01:57:15;;;;;;;;;;;;;;;29.99;79.69;100912.06;5037717;28;65715;-40
2023/10/15 01:59:47;;;;;;;;;;;;;;;30.01;79.48;100909.97;5037159;28;69045;-40
2023/10/15 02:02:18;;;;;;;;;;;;;;;30.02;79.53;100910.78;5044055;28;65818;-40
2023/10/15 02:04:48;;;;;;;;;;;;;;;29.98;78.79;100915.81;5038978;28;70246;-40
2023/10/15 02:07:20;;;;;;;;;;;;;;;30.02;78.72;100927.03;5043120;28;67056;-39
2023/10/15 02:09:51;;;;;;;;;;;;;;;30.00;78.04;100921.00;5036203;28;70596;-40
2023/10/15 02:12:21;;;;;;;;;;;;;;;29.99;77.79;100922.03;5042377;28;66490;-41
2023/10/15 02:14:53;;;;;;;;;;;;;;;30.01;77.72;100925.38;5038354;28;70255;-40
2023/10/15 02:17:24;;;;;;;;;;;;;;;30.00;77.98;100916.41;5037696;28;66644;-42
2023/10/15 02:19:55;;;;;;;;;;;;;;;29.99;76.97;100922.03;5041228;28;71019;-40
2023/10/15 02:22:25;;;;;;;;;;;;;;;30.01;77.20;100914.56;5048723;28;66888;-41
2023/10/15 02:24:56;;;;;;;;;;;;;;;30.01;77.71;100914.56;5058171;28;70003;-40
2023/10/15 02:27:34;;;;;;;;;;;;;;;30.05;77.73;100915.78;5061417;28;65524;-40
2023/10/15 02:30:06;;;;;;;;;;;;;;;30.04;76.99;100903.31;5044408;28;70297;-43
2023/10/15 02:32:42;;;;;;;;;;;;;;;30.04;77.77;100908.72;5059182;28;66408;-40
2023/10/15 02:35:12;;;;;;;;;;;;;;;30.05;77.63;100899.53;5043086;28;70050;-40
2023/10/15 02:37:47;;;;;;;;;;;;;;;30.08;77.67;100899.09;5056510;28;43171;-41
2023/10/15 02:40:20;;;;;;;;;;;;;;;30.14;77.40;100897.41;5044210;28;69846;-40
2023/10/15 02:42:53;;;;;;;;;;;;;;;30.17;77.27;100892.44;5045885;28;66197;-39
2023/10/15 02:45:24;;;;;;;;;;;;;;;30.21;77.40;100888.22;5041813;28;70749;-41
2023/10/15 02:47:55;;;;;;;;;;;;;;;30.24;76.73;100893.25;5054882;28;66588;-39
2023/10/15 02:50:26;;;;;;;;;;;;;;;30.26;76.53;100885.75;5038605;28;70793;-40
2023/10/15 02:52:56;;;;;;;;;;;;;;;30.28;76.83;100883.66;5040179;28;65679;-40
2023/10/15 02:55:35;;;;;;;;;;;;;;;30.27;76.61;100884.69;5038323;28;69648;-40
2023/10/15 02:58:05;;;;;;;;;;;;;;;30.28;76.54;100883.66;5027771;28;66013;-40
2023/10/15 03:00:41;;;;;;;;;;;;;;;30.31;76.42;100873.44;5041024;28;69450;-40
2023/10/15 03:03:15;;;;;;;;;;;;;;;30.32;75.83;100877.81;5045252;28;66593;-41
2023/10/15 03:05:46;;;;;;;;;;;;;;;30.34;75.71;100875.69;5050974;28;69462;-39
2023/10/15 03:08:20;;;;;;;;;;;;;;;30.34;76.07;100870.28;5054313;28;66219;-40
2023/10/15 03:11:11;;;;;;;;;;;;;;;30.34;75.24;100865.72;5035251;28;69873;-42
2023/10/15 03:16:43;;;;;;;;;;;;;;;30.37;75.26;100853.63;5042723;28;70038;-41
2023/10/15 03:19:23;;;;;;;;;;;;;;;30.39;75.22;100857.75;5056688;28;65996;-41
2023/10/15 03:21:58;;;;;;;;;;;;;;;30.12;75.55;100813.78;5038190;28;70054;-41
2023/10/15 03:24:32;;;;;;;;;;;;;;;30.44;76.00;100855.25;5040887;28;66350;-41
2023/10/15 03:27:04;;;;;;;;;;;;;;;30.50;75.82;100864.38;5035882;28;69694;-41
2023/10/15 03:29:34;;;;;;;;;;;;;;;30.51;75.74;100857.91;5037737;28;65787;-42
2023/10/15 03:32:12;;;;;;;;;;;;;;;30.55;75.94;100855.59;5054071;28;70646;-41
2023/10/15 03:34:59;;;;;;;;;;;;;;;30.54;75.12;100854.78;5038720;28;66831;-41
2023/10/15 03:37:30;;;;;;;;;;;;;;;30.56;74.58;100858.06;5039354;28;70185;-41
2023/10/15 03:40:10;;;;;;;;;;;;;;;30.58;75.12;100850.56;5039043;28;67272;-42
2023/10/15 03:42:40;;;;;;;;;;;;;;;30.59;74.76;100846.84;5039908;28;70893;-39
2023/10/15 03:45:16;;;;;;;;;;;;;;;30.58;73.89;100842.44;5038165;28;65729;-40
2023/10/15 03:47:47;;;;;;;;;;;;;;;30.58;74.01;100842.44;5040903;28;70876;-42
2023/10/15 03:50:20;;;;;;;;;;;;;;;30.62;73.94;100840.13;5032727;28;65013;-41
2023/10/15 03:52:49;;;;;;;;;;;;;;;30.63;75.27;100833.69;5040815;28;70276;-41
2023/10/15 03:55:19;;;;;;;;;;;;;;;30.66;75.40;100825.94;5040064;28;67000;-40
2023/10/15 03:57:51;;;;;;;;;;;;;;;30.67;74.66;100824.91;5034476;28;70100;-38
2023/10/15 04:00:46;;;;;;;;;;;;;;;30.70;75.54;100821.75;5049467;28;66917;-41
2023/10/15 04:03:22;;;;;;;;;;;;;;;30.75;75.78;100804.81;5040311;28;68022;-42
2023/10/15 04:05:53;;;;;;;;;;;;;;;30.78;75.41;100800.84;5043182;28;66513;-40
2023/10/15 04:08:25;;;;;;;;;;;;;;;30.84;75.78;100791.84;5040532;28;70225;-40
2023/10/15 04:10:55;;;;;;;;;;;;;;;30.87;76.27;100794.13;5045414;28;65349;-42
2023/10/15 04:13:28;;;;;;;;;;;;;;;30.89;76.09;100776.59;5042575;28;69122;-43
2023/10/15 04:15:58;;;;;;;;;;;;;;;30.91;76.34;100779.91;5037920;28;66454;-42
2023/10/15 04:18:29;;;;;;;;;;;;;;;30.94;75.50;100778.66;5039288;28;70671;-43
2023/10/15 04:20:59;;;;;;;;;;;;;;;31.00;76.07;100768.81;5039992;28;66743;-40
2023/10/15 04:23:30;;;;;;;;;;;;;;;31.01;76.39;100767.75;5040964;28;69128;-42
2023/10/15 04:26:07;;;;;;;;;;;;;;;31.03;77.89;100747.50;5039131;28;66802;-41
2023/10/15 04:28:37;;;;;;;;;;;;;;;31.07;77.52;100751.44;5038379;28;70129;-41
2023/10/15 04:31:22;;;;;;;;;;;;;;;31.12;75.79;100740.75;5039785;28;65486;-43
2023/10/15 04:33:52;;;;;;;;;;;;;;;31.12;75.56;100727.22;5040339;28;69835;-42
2023/10/15 04:36:23;;;;;;;;;;;;;;;31.15;74.96;100732.16;5043713;28;66136;-41
2023/10/15 04:39:08;;;;;;;;;;;;;;;31.14;73.94;100716.94;5030068;28;70785;-41
2023/10/15 04:41:40;;;;;;;;;;;;;;;31.15;73.62;100709.66;5053541;28;65532;-41
2023/10/15 04:44:12;;;;;;;;;;;;;;;31.14;73.59;100703.41;5037732;28;70377;-43
2023/10/15 04:46:43;;;;;;;;;;;;;;;31.15;73.41;100699.66;5043686;28;66605;-42
2023/10/15 04:49:17;;;;;;;;;;;;;;;31.16;73.42;100690.47;5025628;28;69803;-40
2023/10/15 04:51:47;;;;;;;;;;;;;;;31.18;73.20;100682.13;5052709;28;66695;-43
2023/10/15 04:54:17;;;;;;;;;;;;;;;31.19;73.33;100683.75;5038819;28;70592;-42
2023/10/15 04:56:47;;;;;;;;;;;;;;;31.21;73.76;100675.41;5039024;28;66683;-42
2023/10/15 04:59:17;;;;;;;;;;;;;;;31.16;74.25;100668.78;5042389;28;70270;-43
2023/10/15 05:01:48;;;;;;;;;;;;;;;31.21;74.17;100670.00;5051779;28;66851;-41
2023/10/15 05:04:17;;;;;;;;;;;;;;;31.19;74.49;100655.84;5041020;28;70655;-42
2023/10/15 05:06:48;;;;;;;;;;;;;;;31.19;74.39;100650.44;5058235;28;66270;-42
2023/10/15 05:09:21;;;;;;;;;;;;;;;31.23;74.16;100638.06;5051980;28;70008;-42
2023/10/15 05:11:52;;;;;;;;;;;;;;;31.23;74.35;100640.78;5037908;28;65619;-42
2023/10/15 05:14:23;;;;;;;;;;;;;;;31.23;74.52;100635.34;5038770;28;70362;-41
2023/10/15 05:16:53;;;;;;;;;;;;;;;31.26;74.74;100626.75;5042182;28;67115;-41
2023/10/15 05:19:24;;;;;;;;;;;;;;;31.26;74.81;100619.50;5037969;28;70536;-41
2023/10/15 05:21:54;;;;;;;;;;;;;;;31.31;75.01;100610.66;5036907;28;66644;-40
2023/10/15 05:24:23;;;;;;;;;;;;;;;31.26;73.78;100613.22;5039250;28;69815;-40
2023/10/15 05:26:54;;;;;;;;;;;;;;;31.16;72.55;100609.19;5036976;28;66689;-43
2023/10/15 05:29:23;;;;;;;;;;;;;;;31.10;71.13;100609.28;5039220;28;70876;-39
2023/10/15 05:31:54;;;;;;;;;;;;;;;31.05;70.39;100612.66;5039262;28;66893;-40
2023/10/15 05:34:24;;;;;;;;;;;;;;;30.97;69.00;100612.97;5038641;28;70344;-41
2023/10/15 05:36:54;;;;;;;;;;;;;;;30.92;68.76;100605.53;5053924;28;64453;-41
2023/10/15 05:39:24;;;;;;;;;;;;;;;30.88;68.26;100603.50;5041325;28;69292;-42
2023/10/15 05:41:54;;;;;;;;;;;;;;;30.86;66.80;100603.72;5040754;28;65903;-42
2023/10/15 05:44:24;;;;;;;;;;;;;;;30.81;65.87;100600.03;5039424;28;69812;-41
2023/10/15 05:46:54;;;;;;;;;;;;;;;30.78;65.15;100600.47;5041305;28;67080;-42
2023/10/15 05:49:26;;;;;;;;;;;;;;;30.72;63.98;100589.47;5038871;28;69762;-43
2023/10/15 05:51:59;;;;;;;;;;;;;;;30.69;64.81;100591.81;5041165;28;66691;-41
2023/10/15 05:54:32;;;;;;;;;;;;;;;30.63;63.82;100584.59;5041110;28;70300;-42
2023/10/15 05:57:05;;;;;;;;;;;;;;;30.60;63.18;100583.19;5044840;28;67055;-41
2023/10/15 05:59:36;;;;;;;;;;;;;;;30.57;62.09;100570.09;5042363;28;68597;-42
2023/10/15 06:02:05;;;;;;;;;;;;;;;30.55;61.65;100569.47;5031825;28;66205;-42
2023/10/15 06:04:36;;;;;;;;;;;;;;;30.54;61.39;100562.44;5041374;28;69113;-41
2023/10/15 06:07:08;;;;;;;;;;;;;;;30.49;60.60;100554.16;5039640;28;66616;-43
2023/10/15 06:09:38;;;;;;;;;;;;;;;30.47;59.91;100558.97;5031318;28;71108;-41
2023/10/15 06:12:08;;;;;;;;;;;;;;;30.46;59.28;100554.59;5035618;28;65979;-41
2023/10/15 06:14:38;;;;;;;;;;;;;;;30.43;59.11;100549.66;5040956;28;70464;-40
2023/10/15 06:17:08;;;;;;;;;;;;;;;30.43;58.26;100541.53;5022981;28;67001;-42
2023/10/15 06:19:39;;;;;;;;;;;;;;;30.40;58.06;100539.28;5028054;28;69730;-41
2023/10/15 06:22:08;;;;;;;;;;;;;;;30.44;57.73;100540.47;5040172;28;67187;-41
2023/10/15 06:24:38;;;;;;;;;;;;;;;30.41;56.98;100535.50;5038294;28;70681;-42
2023/10/15 06:27:08;;;;;;;;;;;;;;;30.40;56.79;100533.88;5038529;28;66819;-40
2023/10/15 06:29:38;;;;;;;;;;;;;;;30.38;56.77;100523.25;5049373;28;70861;-41
2023/10/15 06:32:08;;;;;;;;;;;;;;;30.39;56.53;100522.19;5040836;28;66837;-43
2023/10/15 06:34:39;;;;;;;;;;;;;;;30.37;55.99;100512.63;5040660;28;70641;-42
2023/10/15 06:37:09;;;;;;;;;;;;;;;30.37;55.75;100518.91;5041793;28;65251;-40
2023/10/15 06:39:40;;;;;;;;;;;;;;;30.36;55.56;100506.41;5040830;28;70557;-42
2023/10/15 06:42:09;;;;;;;;;;;;;;;30.37;55.26;100501.81;5041575;28;67803;-42
2023/10/15 06:44:39;;;;;;;;;;;;;;;30.40;55.31;100495.97;5041060;28;70157;-42
2023/10/15 06:47:09;;;;;;;;;;;;;;;30.40;55.16;100485.16;5041237;28;65383;-41
2023/10/15 06:49:39;;;;;;;;;;;;;;;30.41;54.83;100484.09;5038608;28;70800;-41
2023/10/15 06:52:09;;;;;;;;;;;;;;;30.39;54.42;100473.47;5042060;28;66076;-41
2023/10/15 06:54:38;;;;;;;;;;;;;;;30.41;54.32;100473.25;5040243;28;70828;-41
2023/10/15 06:57:08;;;;;;;;;;;;;;;30.40;54.05;100466.22;5054675;28;66713;-41
2023/10/15 06:59:38;;;;;;;;;;;;;;;30.44;54.51;100470.09;5031866;28;70762;-42
2023/10/15 07:02:13;;;;;;;;;;;;;;;30.44;53.87;100461.97;5027780;28;66903;-40
2023/10/15 07:04:43;;;;;;;;;;;;;;;30.45;53.33;100455.50;5032922;28;70405;-40
2023/10/15 07:07:14;;;;;;;;;;;;;;;30.47;53.34;100453.41;5026014;28;66656;-40
2023/10/15 07:09:44;;;;;;;;;;;;;;;30.46;53.14;100440.94;5041694;28;70682;-42
2023/10/15 07:12:14;;;;;;;;;;;;;;;30.49;53.18;100445.88;5040650;28;65548;-41
2023/10/15 07:14:44;;;;;;;;;;;;;;;30.51;52.82;100432.97;5042585;28;70597;-42
2023/10/15 07:17:14;;;;;;;;;;;;;;;30.56;53.19;100430.38;5041907;28;66997;-41
2023/10/15 07:19:45;;;;;;;;;;;;;;;30.58;52.63;100422.03;5041475;28;70379;-42
2023/10/15 07:22:15;;;;;;;;;;;;;;;30.63;53.28;100424.88;5040845;28;66191;-41
2023/10/15 07:24:45;;;;;;;;;;;;;;;30.65;53.68;100418.19;5035314;28;70700;-42
2023/10/15 07:27:15;;;;;;;;;;;;;;;30.69;53.42;100416.66;5038227;28;66642;-42
2023/10/15 07:29:45;;;;;;;;;;;;;;;30.75;55.29;100419.50;5041106;28;69307;-39
2023/10/15 07:32:15;;;;;;;;;;;;;;;30.76;54.88;100407.59;5041375;28;66179;-41
2023/10/15 07:34:45;;;;;;;;;;;;;;;30.79;54.09;100409.88;5041027;28;69755;-40
2023/10/15 07:37:15;;;;;;;;;;;;;;;30.80;54.37;100400.72;5039478;28;66666;-40
2023/10/15 07:39:45;;;;;;;;;;;;;;;30.93;55.12;100392.41;5032115;28;69260;-40
2023/10/15 07:42:14;;;;;;;;;;;;;;;31.04;55.50;100388.06;5030307;28;65081;-40
2023/10/15 07:44:44;;;;;;;;;;;;;;;31.12;55.65;100385.84;5038756;28;70136;-44
2023/10/15 07:47:15;;;;;;;;;;;;;;;31.20;55.86;100395.47;5040254;28;66962;-41
2023/10/15 07:49:45;;;;;;;;;;;;;;;31.27;56.24;100392.69;5040898;28;69323;-41
2023/10/15 07:52:16;;;;;;;;;;;;;;;31.33;56.76;100381.72;5039260;28;68055;-39
2023/10/15 07:54:46;;;;;;;;;;;;;;;31.37;56.98;100390.22;5038273;28;70168;-41
2023/10/15 07:57:16;;;;;;;;;;;;;;;31.47;57.42;100393.19;5040981;28;66886;-38
2023/10/15 07:59:46;;;;;;;;;;;;;;;31.54;57.36;100393.91;5028209;28;70298;-41
2023/10/15 08:02:16;;;;;;;;;;;;;;;31.61;58.07;100399.19;5041928;28;65485;-40
2023/10/15 08:04:46;;;;;;;;;;;;;;;31.68;60.43;100399.03;5041833;28;70280;-43
2023/10/15 08:07:17;;;;;;;;;;;;;;;31.73;61.90;100408.16;5037858;28;65745;-42
2023/10/15 08:09:48;;;;;;;;;;;;;;;31.76;63.01;100396.81;5044041;28;71822;-42
2023/10/15 08:12:18;;;;;;;;;;;;;;;31.79;63.71;100395.53;5044284;28;66799;-43
2023/10/15 08:14:48;;;;;;;;;;;;;;;31.84;63.90;100382.06;5042910;28;70406;-43
2023/10/15 08:17:17;;;;;;;;;;;;;;;31.88;64.39;100388.66;5051799;28;66674;-43
2023/10/15 08:19:48;;;;;;;;;;;;;;;31.93;64.74;100380.66;5042547;28;70552;-42
2023/10/15 08:22:18;;;;;;;;;;;;;;;31.96;65.14;100388.31;5042866;28;65698;-42
2023/10/15 08:24:48;;;;;;;;;;;;;;;32.03;65.41;100386.28;5042540;28;70093;-42
2023/10/15 08:27:19;;;;;;;;;;;;;;;32.04;65.67;100382.53;5043128;28;66691;-42
2023/10/15 08:29:49;;;;;;;;;;;;;;;32.10;66.02;100382.63;5041976;28;70268;-40
2023/10/15 08:32:20;;;;;;;;;;;;;;;32.15;65.83;100380.00;5043637;28;66569;-42
2023/10/15 08:34:50;;;;;;;;;;;;;;;32.18;65.88;100382.22;5056900;28;70188;-42
2023/10/15 08:37:20;;;;;;;;;;;;;;;32.24;65.90;100378.56;5042573;28;66558;-39
2023/10/15 08:39:50;;;;;;;;;;;;;;;32.26;66.06;100385.41;5043049;28;70682;-42
2023/10/15 08:42:26;;;;;;;;;;;;;;;32.32;66.03;100380.06;5036047;28;65432;-41
2023/10/15 08:44:57;;;;;;;;;;;;;;;32.35;66.20;100393.16;5042473;28;70900;-40
2023/10/15 08:47:28;;;;;;;;;;;;;;;32.32;66.33;100399.91;5044101;28;66139;-41
2023/10/15 08:50:00;;;;;;;;;;;;;;;32.29;66.15;100408.53;5044162;28;71413;-41
2023/10/15 08:52:31;;;;;;;;;;;;;;;32.34;66.26;100410.50;5041074;28;65426;-40
2023/10/15 08:55:01;;;;;;;;;;;;;;;32.36;67.08;100413.81;5044059;28;70471;-41
2023/10/15 08:57:31;;;;;;;;;;;;;;;32.40;66.99;100406.81;5045892;28;66346;-43
2023/10/15 09:00:02;;;;;;;;;;;;;;;32.44;67.49;100408.81;5043864;28;69716;-41
2023/10/15 09:02:49;;;;;;;;;;;;;;;32.48;67.82;100412.75;5043651;28;66485;-41
2023/10/15 09:05:19;;;;;;;;;;;;;;;32.52;67.93;100417.69;5041536;28;69568;-42
2023/10/15 09:07:51;;;;;;;;;;;;;;;32.55;67.80;100414.47;5043258;28;66404;-41
2023/10/15 09:10:21;;;;;;;;;;;;;;;32.54;67.98;100419.09;5043094;28;69827;-40
2023/10/15 09:12:51;;;;;;;;;;;;;;;32.59;67.89;100431.91;5041051;28;66682;-40
2023/10/15 09:15:28;;;;;;;;;;;;;;;32.63;67.94;100433.09;5042048;28;69668;-43
2023/10/15 09:17:59;;;;;;;;;;;;;;;32.65;68.41;100444.50;5042108;28;66006;-42
2023/10/15 09:20:33;;;;;;;;;;;;;;;32.62;68.83;100447.72;5041518;28;68918;-40
2023/10/15 09:23:03;;;;;;;;;;;;;;;32.63;69.36;100457.53;5040623;28;66367;-41
2023/10/15 09:25:32;;;;;;;;;;;;;;;32.63;68.87;100452.09;5033952;28;70747;-43
2023/10/15 09:28:05;;;;;;;;;;;;;;;32.65;69.13;100458.94;5041981;28;66120;-40
2023/10/15 09:30:35;;;;;;;;;;;;;;;32.68;69.37;100457.59;5042553;28;70139;-41
2023/10/15 09:33:12;;;;;;;;;;;;;;;32.67;69.34;100464.13;5039412;28;67358;-41
2023/10/15 09:35:42;;;;;;;;;;;;;;;32.83;69.00;100470.66;5039573;28;70462;-40
2023/10/15 09:38:14;;;;;;;;;;;;;;;33.01;67.84;100462.31;5038258;28;66162;-40
2023/10/15 09:40:45;;;;;;;;;;;;;;;33.15;67.17;100466.41;5041026;28;70473;-40
2023/10/15 09:43:15;;;;;;;;;;;;;;;33.23;66.68;100465.16;5045606;28;67068;-42
2023/10/15 09:45:45;;;;;;;;;;;;;;;33.29;66.41;100480.50;5049884;28;69147;-40
2023/10/15 09:48:17;;;;;;;;;;;;;;;33.33;66.31;100468.03;5037573;28;67087;-40
2023/10/15 09:50:47;;;;;;;;;;;;;;;33.36;65.91;100464.81;5048111;28;69064;-41
2023/10/15 09:53:16;;;;;;;;;;;;;;;33.40;65.66;100458.88;5034777;28;66011;-40
2023/10/15 09:55:47;;;;;;;;;;;;;;;33.42;65.24;100451.31;5040791;28;70109;-40
2023/10/15 09:58:17;;;;;;;;;;;;;;;33.43;65.24;100452.94;5042031;28;67267;-40
2023/10/15 10:00:59;;;;;;;;;;;;;;;33.46;65.15;100453.31;5036507;28;70271;-40
2023/10/15 10:03:47;;;;;;;;;;;;;;;33.47;65.07;100456.84;5037943;28;66963;-40
2023/10/15 10:06:18;;;;;;;;;;;;;;;33.48;65.37;100461.19;5038116;28;69712;-41
2023/10/15 10:08:48;;;;;;;;;;;;;;;33.48;65.23;100462.00;5040548;28;66384;-41
2023/10/15 10:11:22;;;;;;;;;;;;;;;33.48;65.48;100472.06;5038892;28;70491;-40
2023/10/15 10:14:08;;;;;;;;;;;;;;;33.48;65.18;100477.50;5039174;28;66539;-42
2023/10/15 10:16:41;;;;;;;;;;;;;;;33.48;64.96;100477.50;5054703;28;70589;-41
2023/10/15 10:19:12;;;;;;;;;;;;;;;33.05;67.00;100471.66;5038657;28;66615;-40
2023/10/15 10:21:48;;;;;;;;;;;;;;;32.78;68.68;100474.09;5038336;28;70497;-41
2023/10/15 10:24:18;;;;;;;;;;;;;;;32.64;69.47;100487.16;5039418;28;66329;-40
2023/10/15 10:26:55;;;;;;;;;;;;;;;32.55;69.95;100504.06;5039650;28;70799;-41
2023/10/15 10:29:30;;;;;;;;;;;;;;;32.46;70.14;100522.63;5040576;28;66879;-41
2023/10/15 10:32:00;;;;;;;;;;;;;;;32.42;70.55;100526.84;5040401;28;70239;-41
2023/10/15 10:34:30;;;;;;;;;;;;;;;32.37;70.73;100527.56;5038077;28;66772;-40
2023/10/15 10:37:00;;;;;;;;;;;;;;;32.35;70.76;100518.84;5042530;28;69824;-40
2023/10/15 10:39:58;;;;;;;;;;;;;;;32.33;71.42;100520.16;5041638;28;66055;-42
2023/10/15 10:42:29;;;;;;;;;;;;;;;32.31;71.78;100527.69;5031401;28;70595;-42
2023/10/15 10:44:59;;;;;;;;;;;;;;;32.32;71.94;100538.31;5041136;28;66755;-42
2023/10/15 10:47:29;;;;;;;;;;;;;;;32.31;71.82;100538.56;5055514;28;70582;-42
2023/10/15 10:50:00;;;;;;;;;;;;;;;32.30;71.97;100531.47;5039629;28;65752;-42
2023/10/15 10:52:37;;;;;;;;;;;;;;;32.27;72.19;100528.19;5041202;28;70194;-40
2023/10/15 10:55:29;;;;;;;;;;;;;;;32.28;71.95;100529.00;5052599;28;66661;-43
2023/10/15 10:58:02;;;;;;;;;;;;;;;32.26;72.13;100520.25;5038180;28;70521;-43
2023/10/15 11:00:33;;;;;;;;;;;;;;;32.25;72.63;100513.19;5037029;28;66962;-40
2023/10/15 11:03:06;;;;;;;;;;;;;;;32.27;72.71;100521.94;5036510;28;69642;-40
2023/10/15 11:05:36;;;;;;;;;;;;;;;32.22;72.84;100522.63;5032563;28;66904;-41
2023/10/15 11:08:16;;;;;;;;;;;;;;;32.24;73.44;100530.56;5039948;28;69729;-39
2023/10/15 11:10:47;;;;;;;;;;;;;;;32.23;73.44;100542.44;5038586;28;67137;-42
2023/10/15 11:13:17;;;;;;;;;;;;;;;32.20;73.12;100532.06;5047504;28;69504;-42
2023/10/15 11:15:51;;;;;;;;;;;;;;;32.20;73.05;100532.91;5038037;28;66008;-42
2023/10/15 11:18:24;;;;;;;;;;;;;;;32.21;72.87;100544.59;5039888;28;69462;-43
2023/10/15 11:20:55;;;;;;;;;;;;;;;32.21;72.75;100550.03;5035440;28;66390;-43
2023/10/15 11:23:26;;;;;;;;;;;;;;;32.20;72.49;100559.22;5038051;28;70095;-41
2023/10/15 11:25:58;;;;;;;;;;;;;;;32.20;72.23;100564.63;5038185;28;65411;-42
2023/10/15 11:28:28;;;;;;;;;;;;;;;32.18;71.86;100566.75;5040996;28;70149;-42
2023/10/15 11:30:58;;;;;;;;;;;;;;;32.14;71.86;100573.72;5037539;28;66945;-41
2023/10/15 11:33:28;;;;;;;;;;;;;;;32.11;71.87;100566.06;5040014;28;70322;-42
2023/10/15 11:35:59;;;;;;;;;;;;;;;32.08;72.26;100566.53;5035726;28;65749;-41
2023/10/15 11:38:35;;;;;;;;;;;;;;;32.06;72.00;100574.91;5035613;28;69849;-41
2023/10/15 11:41:07;;;;;;;;;;;;;;;32.04;72.08;100577.06;5041402;28;66593;-40
2023/10/15 11:43:37;;;;;;;;;;;;;;;32.02;72.03;100582.69;5037156;28;68993;-41
2023/10/15 11:46:10;;;;;;;;;;;;;;;32.01;72.09;100583.78;5052717;28;65926;-41
2023/10/15 11:48:40;;;;;;;;;;;;;;;31.99;71.92;100579.63;5038525;28;69857;-41
2023/10/15 11:51:10;;;;;;;;;;;;;;;31.97;71.79;100593.41;5055594;28;66794;-41
2023/10/15 11:53:41;;;;;;;;;;;;;;;31.97;71.95;100603.44;5040107;28;69099;-42
2023/10/15 11:56:16;;;;;;;;;;;;;;;31.96;72.20;100624.34;5040910;28;66771;-42
2023/10/15 11:58:48;;;;;;;;;;;;;;;31.92;71.67;100617.72;5036739;28;68964;-41
2023/10/15 12:01:18;;;;;;;;;;;;;;;31.88;71.74;100632.78;5031099;28;65398;-42
2023/10/15 12:03:49;;;;;;;;;;;;;;;31.86;71.68;100636.78;5038309;28;68998;-43
2023/10/15 12:06:19;;;;;;;;;;;;;;;31.82;71.72;100639.16;5041533;28;66419;-39
2023/10/15 12:08:48;;;;;;;;;;;;;;;31.81;71.84;100653.75;5040437;28;69292;-41
2023/10/15 12:11:19;;;;;;;;;;;;;;;31.79;71.68;100661.31;5039074;28;65734;-41
2023/10/15 12:13:48;;;;;;;;;;;;;;;31.79;71.71;100667.56;5054050;28;70088;-42
2023/10/15 12:16:18;;;;;;;;;;;;;;;31.82;72.45;100677.13;5041392;28;66841;-40
2023/10/15 12:18:49;;;;;;;;;;;;;;;31.86;72.56;100682.91;5039944;28;69451;-40
2023/10/15 12:21:19;;;;;;;;;;;;;;;31.87;72.09;100677.22;5041434;28;66216;-42
2023/10/15 12:23:49;;;;;;;;;;;;;;;31.87;71.95;100684.53;5041503;28;72374;-41
2023/10/15 12:26:21;;;;;;;;;;;;;;;31.81;71.99;100687.13;5039610;28;65575;-42
2023/10/15 12:28:57;;;;;;;;;;;;;;;31.80;71.96;100695.50;5036420;28;68972;-42
2023/10/15 12:31:27;;;;;;;;;;;;;;;31.78;72.21;100709.28;5049865;28;65351;-41
2023/10/15 12:33:57;;;;;;;;;;;;;;;31.75;72.10;100715.16;5039124;28;70611;-42
2023/10/15 12:36:28;;;;;;;;;;;;;;;31.75;72.63;100725.19;5046160;28;66655;-42
2023/10/15 12:38:58;;;;;;;;;;;;;;;31.74;72.55;100740.63;5037805;28;70358;-42
2023/10/15 12:41:28;;;;;;;;;;;;;;;31.73;72.92;100749.00;5043780;28;66700;-40
2023/10/15 12:44:00;;;;;;;;;;;;;;;31.71;73.18;100751.94;5038677;28;70252;-41
2023/10/15 12:46:31;;;;;;;;;;;;;;;31.69;73.47;100758.66;5039943;28;65975;-58
2023/10/15 12:49:03;;;;;;;;;;;;;;;31.68;73.34;100763.25;5036127;28;70803;-41
2023/10/15 12:51:34;;;;;;;;;;;;;;;31.67;73.54;100772.44;5041767;27;66973;-41
2023/10/15 12:54:04;;;;;;;;;;;;;;;31.65;73.45;100780.00;5041815;28;70236;-42
2023/10/15 12:56:34;;;;;;;;;;;;;;;31.64;73.87;100791.03;5054933;28;66388;-41
2023/10/15 12:59:06;;;;;;;;;;;;;;;31.63;73.63;100813.81;5044638;28;69944;-47
2023/10/15 13:01:40;;;;;;;;;;;;;;;31.62;73.95;100818.38;5043102;28;65788;-41
2023/10/15 13:04:10;;;;;;;;;;;;;;;31.61;74.12;100828.41;5044976;28;69767;-40